sensor_id;sensor_type;location;lat;lon;timestamp;P1;durP1;ratioP1;P2;durP2;ratioP2
26488;SDS011;14169;43.684;10.484;2023-02-28T00:00:20;5.20;;;3.72;;
26488;SDS011;14169;43.684;10.484;2023-02-28T00:02:47;5.30;;;4.35;;
26488;SDS011;14169;43.684;10.484;2023-02-28T00:05:14;5.00;;;4.07;;
26488;SDS011;14169;43.684;10.484;2023-02-28T00:07:41;4.72;;;3.70;;
26488;SDS011;14169;43.684;10.484;2023-02-28T00:10:09;4.55;;;3.83;;
26488;SDS011;14169;43.684;10.484;2023-02-28T00:12:37;3.97;;;3.38;;
26488;SDS011;14169;43.684;10.484;2023-02-28T00:15:09;5.20;;;3.80;;
26488;SDS011;14169;43.684;10.484;2023-02-28T00:17:36;5.40;;;3.90;;
26488;SDS011;14169;43.684;10.484;2023-02-28T00:20:03;7.63;;;4.20;;
26488;SDS011;14169;43.684;10.484;2023-02-28T00:22:40;4.97;;;4.28;;
26488;SDS011;14169;43.684;10.484;2023-02-28T00:25:11;6.18;;;3.45;;
26488;SDS011;14169;43.684;10.484;2023-02-28T00:27:39;4.65;;;4.18;;
26488;SDS011;14169;43.684;10.484;2023-02-28T00:30:06;4.50;;;3.97;;
26488;SDS011;14169;43.684;10.484;2023-02-28T00:32:34;6.47;;;4.10;;
26488;SDS011;14169;43.684;10.484;2023-02-28T00:35:01;6.70;;;4.45;;
26488;SDS011;14169;43.684;10.484;2023-02-28T00:37:29;7.65;;;4.47;;
26488;SDS011;14169;43.684;10.484;2023-02-28T00:39:54;7.15;;;4.10;;
26488;SDS011;14169;43.684;10.484;2023-02-28T00:42:20;5.47;;;4.43;;
26488;SDS011;14169;43.684;10.484;2023-02-28T00:44:45;3.83;;;3.42;;
26488;SDS011;14169;43.684;10.484;2023-02-28T00:47:11;7.18;;;4.20;;
26488;SDS011;14169;43.684;10.484;2023-02-28T00:49:36;4.38;;;3.97;;
26488;SDS011;14169;43.684;10.484;2023-02-28T00:52:02;5.07;;;4.28;;
26488;SDS011;14169;43.684;10.484;2023-02-28T00:54:28;6.32;;;4.20;;
26488;SDS011;14169;43.684;10.484;2023-02-28T00:56:54;4.22;;;3.78;;
26488;SDS011;14169;43.684;10.484;2023-02-28T00:59:19;5.60;;;4.10;;
26488;SDS011;14169;43.684;10.484;2023-02-28T01:01:45;5.30;;;3.42;;
26488;SDS011;14169;43.684;10.484;2023-02-28T01:04:11;4.82;;;4.03;;
26488;SDS011;14169;43.684;10.484;2023-02-28T01:06:37;4.53;;;4.13;;
26488;SDS011;14169;43.684;10.484;2023-02-28T01:09:03;4.80;;;4.03;;
26488;SDS011;14169;43.684;10.484;2023-02-28T01:11:30;4.50;;;3.58;;
26488;SDS011;14169;43.684;10.484;2023-02-28T01:13:56;4.30;;;3.90;;
26488;SDS011;14169;43.684;10.484;2023-02-28T01:16:21;4.53;;;3.60;;
26488;SDS011;14169;43.684;10.484;2023-02-28T01:18:47;4.70;;;4.05;;
26488;SDS011;14169;43.684;10.484;2023-02-28T01:21:14;5.15;;;4.35;;
26488;SDS011;14169;43.684;10.484;2023-02-28T01:23:41;4.75;;;4.35;;
26488;SDS011;14169;43.684;10.484;2023-02-28T01:26:08;4.63;;;4.05;;
26488;SDS011;14169;43.684;10.484;2023-02-28T01:28:35;4.97;;;4.47;;
26488;SDS011;14169;43.684;10.484;2023-02-28T01:31:01;4.93;;;4.43;;
26488;SDS011;14169;43.684;10.484;2023-02-28T01:33:27;4.82;;;4.32;;
26488;SDS011;14169;43.684;10.484;2023-02-28T01:36:07;4.50;;;4.10;;
26488;SDS011;14169;43.684;10.484;2023-02-28T01:38:38;5.32;;;3.92;;
26488;SDS011;14169;43.684;10.484;2023-02-28T01:41:03;4.35;;;3.95;;
26488;SDS011;14169;43.684;10.484;2023-02-28T01:43:30;4.82;;;4.30;;
26488;SDS011;14169;43.684;10.484;2023-02-28T01:46:08;5.40;;;4.90;;
26488;SDS011;14169;43.684;10.484;2023-02-28T01:48:36;4.93;;;4.47;;
26488;SDS011;14169;43.684;10.484;2023-02-28T01:51:07;5.70;;;5.10;;
26488;SDS011;14169;43.684;10.484;2023-02-28T01:53:44;4.55;;;4.15;;
26488;SDS011;14169;43.684;10.484;2023-02-28T01:56:13;9.60;;;4.43;;
26488;SDS011;14169;43.684;10.484;2023-02-28T01:58:46;5.45;;;4.93;;
26488;SDS011;14169;43.684;10.484;2023-02-28T02:01:13;6.38;;;5.70;;
26488;SDS011;14169;43.684;10.484;2023-02-28T02:03:47;4.72;;;4.32;;
26488;SDS011;14169;43.684;10.484;2023-02-28T02:06:20;5.03;;;4.22;;
26488;SDS011;14169;43.684;10.484;2023-02-28T02:08:47;5.70;;;4.97;;
26488;SDS011;14169;43.684;10.484;2023-02-28T02:11:12;5.93;;;5.10;;
26488;SDS011;14169;43.684;10.484;2023-02-28T02:22:12;5.65;;;4.72;;
26488;SDS011;14169;43.684;10.484;2023-02-28T02:39:58;6.10;;;5.60;;
26488;SDS011;14169;43.684;10.484;2023-02-28T02:42:28;5.95;;;5.10;;
26488;SDS011;14169;43.684;10.484;2023-02-28T02:45:04;5.80;;;5.30;;
26488;SDS011;14169;43.684;10.484;2023-02-28T02:47:34;6.63;;;6.00;;
26488;SDS011;14169;43.684;10.484;2023-02-28T02:50:02;6.53;;;5.93;;
26488;SDS011;14169;43.684;10.484;2023-02-28T02:52:34;7.20;;;5.63;;
26488;SDS011;14169;43.684;10.484;2023-02-28T02:55:03;5.93;;;5.32;;
26488;SDS011;14169;43.684;10.484;2023-02-28T03:00:03;6.53;;;5.93;;
26488;SDS011;14169;43.684;10.484;2023-02-28T03:02:33;6.57;;;5.70;;
26488;SDS011;14169;43.684;10.484;2023-02-28T03:05:04;6.75;;;6.15;;
26488;SDS011;14169;43.684;10.484;2023-02-28T03:07:34;6.45;;;5.63;;
26488;SDS011;14169;43.684;10.484;2023-02-28T03:09:59;6.13;;;5.50;;
26488;SDS011;14169;43.684;10.484;2023-02-28T03:12:32;5.68;;;5.18;;
26488;SDS011;14169;43.684;10.484;2023-02-28T03:15:24;6.00;;;5.35;;
26488;SDS011;14169;43.684;10.484;2023-02-28T03:23:13;5.88;;;5.28;;
26488;SDS011;14169;43.684;10.484;2023-02-28T03:28:30;6.10;;;5.55;;
26488;SDS011;14169;43.684;10.484;2023-02-28T03:31:11;7.07;;;6.10;;
26488;SDS011;14169;43.684;10.484;2023-02-28T03:33:50;6.93;;;5.55;;
26488;SDS011;14169;43.684;10.484;2023-02-28T03:36:25;6.10;;;5.47;;
26488;SDS011;14169;43.684;10.484;2023-02-28T03:38:58;6.15;;;5.47;;
26488;SDS011;14169;43.684;10.484;2023-02-28T03:41:47;4.75;;;4.25;;
26488;SDS011;14169;43.684;10.484;2023-02-28T03:44:34;4.70;;;4.30;;
26488;SDS011;14169;43.684;10.484;2023-02-28T03:47:05;6.32;;;5.43;;
26488;SDS011;14169;43.684;10.484;2023-02-28T03:49:43;5.82;;;4.57;;
26488;SDS011;14169;43.684;10.484;2023-02-28T03:52:14;5.97;;;5.25;;
26488;SDS011;14169;43.684;10.484;2023-02-28T03:54:44;5.32;;;4.55;;
26488;SDS011;14169;43.684;10.484;2023-02-28T03:57:15;4.15;;;3.75;;
26488;SDS011;14169;43.684;10.484;2023-02-28T03:59:49;4.88;;;4.40;;
26488;SDS011;14169;43.684;10.484;2023-02-28T04:02:39;4.40;;;4.00;;
26488;SDS011;14169;43.684;10.484;2023-02-28T04:05:05;5.50;;;5.00;;
26488;SDS011;14169;43.684;10.484;2023-02-28T04:07:31;4.72;;;4.25;;
26488;SDS011;14169;43.684;10.484;2023-02-28T04:09:57;4.15;;;3.75;;
26488;SDS011;14169;43.684;10.484;2023-02-28T04:12:24;4.32;;;3.92;;
26488;SDS011;14169;43.684;10.484;2023-02-28T04:14:49;4.28;;;3.88;;
26488;SDS011;14169;43.684;10.484;2023-02-28T04:17:15;5.45;;;4.55;;
26488;SDS011;14169;43.684;10.484;2023-02-28T04:19:41;4.45;;;4.05;;
26488;SDS011;14169;43.684;10.484;2023-02-28T04:22:07;5.85;;;4.20;;
26488;SDS011;14169;43.684;10.484;2023-02-28T04:24:33;4.68;;;4.18;;
26488;SDS011;14169;43.684;10.484;2023-02-28T04:26:59;4.32;;;3.92;;
26488;SDS011;14169;43.684;10.484;2023-02-28T04:29:28;4.90;;;4.45;;
26488;SDS011;14169;43.684;10.484;2023-02-28T04:31:56;4.22;;;3.83;;
26488;SDS011;14169;43.684;10.484;2023-02-28T04:34:24;4.90;;;3.80;;
26488;SDS011;14169;43.684;10.484;2023-02-28T04:36:50;3.50;;;2.72;;
26488;SDS011;14169;43.684;10.484;2023-02-28T04:39:18;5.50;;;3.30;;
26488;SDS011;14169;43.684;10.484;2023-02-28T04:41:45;3.78;;;3.30;;
26488;SDS011;14169;43.684;10.484;2023-02-28T04:44:10;3.75;;;3.45;;
26488;SDS011;14169;43.684;10.484;2023-02-28T04:46:36;3.50;;;3.20;;
26488;SDS011;14169;43.684;10.484;2023-02-28T04:49:01;3.63;;;3.20;;
26488;SDS011;14169;43.684;10.484;2023-02-28T04:51:27;3.15;;;2.85;;
26488;SDS011;14169;43.684;10.484;2023-02-28T04:53:53;4.18;;;3.78;;
26488;SDS011;14169;43.684;10.484;2023-02-28T04:56:19;4.47;;;4.03;;
26488;SDS011;14169;43.684;10.484;2023-02-28T04:58:45;3.97;;;3.20;;
26488;SDS011;14169;43.684;10.484;2023-02-28T05:03:43;3.88;;;3.45;;
26488;SDS011;14169;43.684;10.484;2023-02-28T05:06:10;3.42;;;2.63;;
26488;SDS011;14169;43.684;10.484;2023-02-28T05:08:37;3.53;;;3.22;;
26488;SDS011;14169;43.684;10.484;2023-02-28T05:11:03;3.22;;;2.92;;
26488;SDS011;14169;43.684;10.484;2023-02-28T05:13:29;3.97;;;3.30;;
26488;SDS011;14169;43.684;10.484;2023-02-28T05:15:55;3.53;;;3.05;;
26488;SDS011;14169;43.684;10.484;2023-02-28T05:18:20;4.00;;;3.50;;
26488;SDS011;14169;43.684;10.484;2023-02-28T05:20:46;3.92;;;3.22;;
26488;SDS011;14169;43.684;10.484;2023-02-28T05:23:12;3.92;;;3.55;;
26488;SDS011;14169;43.684;10.484;2023-02-28T05:25:38;4.72;;;3.03;;
26488;SDS011;14169;43.684;10.484;2023-02-28T05:28:05;3.72;;;3.08;;
26488;SDS011;14169;43.684;10.484;2023-02-28T05:30:30;4.28;;;3.50;;
26488;SDS011;14169;43.684;10.484;2023-02-28T05:32:56;3.60;;;3.30;;
26488;SDS011;14169;43.684;10.484;2023-02-28T05:35:22;5.75;;;4.20;;
26488;SDS011;14169;43.684;10.484;2023-02-28T05:37:48;4.20;;;3.80;;
26488;SDS011;14169;43.684;10.484;2023-02-28T05:40:14;4.88;;;4.47;;
26488;SDS011;14169;43.684;10.484;2023-02-28T05:42:40;4.15;;;3.72;;
26488;SDS011;14169;43.684;10.484;2023-02-28T05:45:07;7.78;;;3.53;;
26488;SDS011;14169;43.684;10.484;2023-02-28T05:47:33;4.10;;;3.70;;
26488;SDS011;14169;43.684;10.484;2023-02-28T05:49:58;4.15;;;3.67;;
26488;SDS011;14169;43.684;10.484;2023-02-28T05:52:25;4.88;;;4.22;;
26488;SDS011;14169;43.684;10.484;2023-02-28T05:54:50;4.53;;;3.45;;
26488;SDS011;14169;43.684;10.484;2023-02-28T05:57:15;5.00;;;3.33;;
26488;SDS011;14169;43.684;10.484;2023-02-28T05:59:41;6.85;;;3.60;;
26488;SDS011;14169;43.684;10.484;2023-02-28T06:02:10;4.40;;;3.70;;
26488;SDS011;14169;43.684;10.484;2023-02-28T06:04:37;4.07;;;3.63;;
26488;SDS011;14169;43.684;10.484;2023-02-28T06:07:03;3.60;;;3.03;;
26488;SDS011;14169;43.684;10.484;2023-02-28T06:09:28;3.40;;;3.10;;
26488;SDS011;14169;43.684;10.484;2023-02-28T06:11:59;4.30;;;3.75;;
26488;SDS011;14169;43.684;10.484;2023-02-28T06:14:27;4.53;;;3.45;;
26488;SDS011;14169;43.684;10.484;2023-02-28T06:16:53;4.70;;;4.20;;
26488;SDS011;14169;43.684;10.484;2023-02-28T06:19:18;3.55;;;3.25;;
26488;SDS011;14169;43.684;10.484;2023-02-28T06:21:44;4.15;;;3.25;;
26488;SDS011;14169;43.684;10.484;2023-02-28T06:24:10;3.70;;;3.35;;
26488;SDS011;14169;43.684;10.484;2023-02-28T06:26:35;4.30;;;3.90;;
26488;SDS011;14169;43.684;10.484;2023-02-28T06:29:01;4.40;;;4.00;;
26488;SDS011;14169;43.684;10.484;2023-02-28T06:31:26;5.45;;;3.55;;
26488;SDS011;14169;43.684;10.484;2023-02-28T06:33:53;4.47;;;4.07;;
26488;SDS011;14169;43.684;10.484;2023-02-28T06:36:19;3.58;;;3.28;;
26488;SDS011;14169;43.684;10.484;2023-02-28T06:38:45;4.15;;;3.45;;
26488;SDS011;14169;43.684;10.484;2023-02-28T06:41:13;4.63;;;3.85;;
26488;SDS011;14169;43.684;10.484;2023-02-28T06:43:40;2.90;;;2.70;;
26488;SDS011;14169;43.684;10.484;2023-02-28T06:46:07;4.18;;;3.10;;
26488;SDS011;14169;43.684;10.484;2023-02-28T06:48:35;3.33;;;2.88;;
26488;SDS011;14169;43.684;10.484;2023-02-28T06:51:02;3.97;;;3.67;;
26488;SDS011;14169;43.684;10.484;2023-02-28T06:53:39;3.42;;;2.63;;
26488;SDS011;14169;43.684;10.484;2023-02-28T06:56:05;3.50;;;3.20;;
26488;SDS011;14169;43.684;10.484;2023-02-28T06:58:32;3.10;;;2.80;;
26488;SDS011;14169;43.684;10.484;2023-02-28T07:00:58;3.15;;;2.65;;
26488;SDS011;14169;43.684;10.484;2023-02-28T07:03:23;2.78;;;2.40;;
26488;SDS011;14169;43.684;10.484;2023-02-28T07:05:49;3.35;;;2.45;;
26488;SDS011;14169;43.684;10.484;2023-02-28T07:08:15;3.17;;;2.75;;
26488;SDS011;14169;43.684;10.484;2023-02-28T07:10:41;2.30;;;1.98;;
26488;SDS011;14169;43.684;10.484;2023-02-28T07:13:07;2.35;;;1.95;;
26488;SDS011;14169;43.684;10.484;2023-02-28T07:15:37;2.60;;;2.10;;
26488;SDS011;14169;43.684;10.484;2023-02-28T07:18:03;3.67;;;1.80;;
26488;SDS011;14169;43.684;10.484;2023-02-28T07:20:28;1.90;;;1.70;;
26488;SDS011;14169;43.684;10.484;2023-02-28T07:22:54;3.58;;;1.67;;
26488;SDS011;14169;43.684;10.484;2023-02-28T07:25:30;3.03;;;2.10;;
26488;SDS011;14169;43.684;10.484;2023-02-28T07:27:56;5.45;;;1.55;;
26488;SDS011;14169;43.684;10.484;2023-02-28T07:30:24;2.25;;;1.58;;
26488;SDS011;14169;43.684;10.484;2023-02-28T07:32:49;2.10;;;1.83;;
26488;SDS011;14169;43.684;10.484;2023-02-28T07:35:15;2.03;;;1.63;;
26488;SDS011;14169;43.684;10.484;2023-02-28T07:37:41;2.13;;;1.58;;
26488;SDS011;14169;43.684;10.484;2023-02-28T07:40:08;1.95;;;1.25;;
26488;SDS011;14169;43.684;10.484;2023-02-28T07:42:39;1.60;;;1.50;;
26488;SDS011;14169;43.684;10.484;2023-02-28T07:45:05;2.47;;;1.55;;
26488;SDS011;14169;43.684;10.484;2023-02-28T07:47:31;1.98;;;1.50;;
26488;SDS011;14169;43.684;10.484;2023-02-28T07:49:57;1.77;;;1.60;;
26488;SDS011;14169;43.684;10.484;2023-02-28T07:52:23;1.80;;;1.33;;
26488;SDS011;14169;43.684;10.484;2023-02-28T07:54:49;2.00;;;1.63;;
26488;SDS011;14169;43.684;10.484;2023-02-28T07:57:15;3.85;;;1.83;;
26488;SDS011;14169;43.684;10.484;2023-02-28T07:59:41;1.60;;;1.35;;
26488;SDS011;14169;43.684;10.484;2023-02-28T08:02:06;4.20;;;2.38;;
26488;SDS011;14169;43.684;10.484;2023-02-28T08:04:35;2.88;;;1.88;;
26488;SDS011;14169;43.684;10.484;2023-02-28T08:07:00;3.60;;;1.88;;
26488;SDS011;14169;43.684;10.484;2023-02-28T08:09:26;1.88;;;1.45;;
26488;SDS011;14169;43.684;10.484;2023-02-28T08:11:51;1.98;;;1.45;;
26488;SDS011;14169;43.684;10.484;2023-02-28T08:14:16;2.28;;;1.40;;
26488;SDS011;14169;43.684;10.484;2023-02-28T08:16:42;3.22;;;1.63;;
26488;SDS011;14169;43.684;10.484;2023-02-28T08:19:08;3.05;;;2.35;;
26488;SDS011;14169;43.684;10.484;2023-02-28T08:21:34;1.60;;;1.40;;
26488;SDS011;14169;43.684;10.484;2023-02-28T08:23:59;2.80;;;1.52;;
26488;SDS011;14169;43.684;10.484;2023-02-28T08:26:25;1.63;;;1.40;;
26488;SDS011;14169;43.684;10.484;2023-02-28T08:28:50;2.63;;;1.52;;
26488;SDS011;14169;43.684;10.484;2023-02-28T08:31:16;2.03;;;1.15;;
26488;SDS011;14169;43.684;10.484;2023-02-28T08:33:42;3.38;;;1.60;;
26488;SDS011;14169;43.684;10.484;2023-02-28T08:36:09;2.78;;;1.00;;
26488;SDS011;14169;43.684;10.484;2023-02-28T08:38:36;1.35;;;1.20;;
26488;SDS011;14169;43.684;10.484;2023-02-28T08:41:04;1.63;;;1.50;;
26488;SDS011;14169;43.684;10.484;2023-02-28T08:43:32;1.40;;;1.30;;
26488;SDS011;14169;43.684;10.484;2023-02-28T08:45:58;13.95;;;1.83;;
26488;SDS011;14169;43.684;10.484;2023-02-28T08:48:24;1.73;;;1.25;;
26488;SDS011;14169;43.684;10.484;2023-02-28T08:50:58;1.50;;;0.90;;
26488;SDS011;14169;43.684;10.484;2023-02-28T08:53:26;1.55;;;1.35;;
26488;SDS011;14169;43.684;10.484;2023-02-28T08:56:34;2.25;;;1.40;;
26488;SDS011;14169;43.684;10.484;2023-02-28T08:58:44;1.50;;;1.10;;
26488;SDS011;14169;43.684;10.484;2023-02-28T09:01:13;1.45;;;1.20;;
26488;SDS011;14169;43.684;10.484;2023-02-28T09:03:41;1.20;;;1.10;;
26488;SDS011;14169;43.684;10.484;2023-02-28T09:06:07;1.33;;;1.20;;
26488;SDS011;14169;43.684;10.484;2023-02-28T09:08:33;1.50;;;1.30;;
26488;SDS011;14169;43.684;10.484;2023-02-28T09:10:59;2.00;;;1.30;;
26488;SDS011;14169;43.684;10.484;2023-02-28T09:13:25;1.40;;;1.10;;
26488;SDS011;14169;43.684;10.484;2023-02-28T09:15:52;1.10;;;1.00;;
26488;SDS011;14169;43.684;10.484;2023-02-28T09:18:18;1.33;;;1.10;;
26488;SDS011;14169;43.684;10.484;2023-02-28T09:20:44;1.15;;;1.05;;
26488;SDS011;14169;43.684;10.484;2023-02-28T09:23:10;1.52;;;1.40;;
26488;SDS011;14169;43.684;10.484;2023-02-28T09:25:37;1.55;;;1.30;;
26488;SDS011;14169;43.684;10.484;2023-02-28T09:28:10;1.48;;;1.20;;
26488;SDS011;14169;43.684;10.484;2023-02-28T09:30:36;1.60;;;1.05;;
26488;SDS011;14169;43.684;10.484;2023-02-28T09:33:02;1.33;;;1.08;;
26488;SDS011;14169;43.684;10.484;2023-02-28T09:35:28;1.40;;;1.20;;
26488;SDS011;14169;43.684;10.484;2023-02-28T09:37:55;1.38;;;1.27;;
26488;SDS011;14169;43.684;10.484;2023-02-28T09:40:23;1.33;;;1.00;;
26488;SDS011;14169;43.684;10.484;2023-02-28T09:42:51;1.75;;;1.25;;
26488;SDS011;14169;43.684;10.484;2023-02-28T09:45:21;1.38;;;1.25;;
26488;SDS011;14169;43.684;10.484;2023-02-28T09:47:51;3.50;;;1.45;;
26488;SDS011;14169;43.684;10.484;2023-02-28T09:53:03;2.58;;;1.70;;
26488;SDS011;14169;43.684;10.484;2023-02-28T09:58:04;1.40;;;1.20;;
26488;SDS011;14169;43.684;10.484;2023-02-28T10:00:34;1.30;;;1.10;;
26488;SDS011;14169;43.684;10.484;2023-02-28T10:03:06;1.80;;;1.20;;
26488;SDS011;14169;43.684;10.484;2023-02-28T10:05:51;1.10;;;1.00;;
26488;SDS011;14169;43.684;10.484;2023-02-28T10:08:36;2.40;;;1.35;;
26488;SDS011;14169;43.684;10.484;2023-02-28T10:11:11;1.60;;;1.20;;
26488;SDS011;14169;43.684;10.484;2023-02-28T10:16:48;2.05;;;1.40;;
26488;SDS011;14169;43.684;10.484;2023-02-28T10:19:32;1.20;;;1.10;;
26488;SDS011;14169;43.684;10.484;2023-02-28T10:22:24;1.80;;;1.30;;
26488;SDS011;14169;43.684;10.484;2023-02-28T10:27:29;1.27;;;1.15;;
26488;SDS011;14169;43.684;10.484;2023-02-28T10:29:57;2.42;;;1.10;;
26488;SDS011;14169;43.684;10.484;2023-02-28T10:32:31;2.85;;;1.20;;
26488;SDS011;14169;43.684;10.484;2023-02-28T10:34:59;1.73;;;1.40;;
26488;SDS011;14169;43.684;10.484;2023-02-28T10:37:31;1.38;;;1.27;;
26488;SDS011;14169;43.684;10.484;2023-02-28T10:40:03;1.42;;;1.25;;
26488;SDS011;14169;43.684;10.484;2023-02-28T10:42:30;2.13;;;1.50;;
26488;SDS011;14169;43.684;10.484;2023-02-28T10:45:07;1.50;;;1.17;;
26488;SDS011;14169;43.684;10.484;2023-02-28T10:47:38;5.22;;;1.92;;
26488;SDS011;14169;43.684;10.484;2023-02-28T10:55:35;1.40;;;1.30;;
26488;SDS011;14169;43.684;10.484;2023-02-28T10:58:01;2.22;;;1.27;;
26488;SDS011;14169;43.684;10.484;2023-02-28T11:00:31;1.75;;;1.35;;
26488;SDS011;14169;43.684;10.484;2023-02-28T11:02:59;1.60;;;1.40;;
26488;SDS011;14169;43.684;10.484;2023-02-28T11:05:28;1.83;;;1.50;;
26488;SDS011;14169;43.684;10.484;2023-02-28T11:08:03;1.30;;;1.20;;
26488;SDS011;14169;43.684;10.484;2023-02-28T11:10:43;1.63;;;1.35;;
26488;SDS011;14169;43.684;10.484;2023-02-28T11:13:17;1.52;;;1.30;;
26488;SDS011;14169;43.684;10.484;2023-02-28T11:15:49;3.40;;;1.85;;
26488;SDS011;14169;43.684;10.484;2023-02-28T11:21:04;4.20;;;1.70;;
26488;SDS011;14169;43.684;10.484;2023-02-28T11:23:31;2.35;;;1.40;;
26488;SDS011;14169;43.684;10.484;2023-02-28T11:26:02;2.45;;;1.42;;
26488;SDS011;14169;43.684;10.484;2023-02-28T11:36:24;1.77;;;1.60;;
26488;SDS011;14169;43.684;10.484;2023-02-28T11:38:56;1.42;;;1.33;;
26488;SDS011;14169;43.684;10.484;2023-02-28T11:46:54;1.60;;;1.42;;
26488;SDS011;14169;43.684;10.484;2023-02-28T11:50:10;1.55;;;1.45;;
26488;SDS011;14169;43.684;10.484;2023-02-28T11:52:57;1.88;;;1.70;;
26488;SDS011;14169;43.684;10.484;2023-02-28T12:03:31;2.75;;;1.80;;
26488;SDS011;14169;43.684;10.484;2023-02-28T12:11:16;3.45;;;1.80;;
26488;SDS011;14169;43.684;10.484;2023-02-28T12:14:43;2.20;;;1.90;;
26488;SDS011;14169;43.684;10.484;2023-02-28T12:22:46;2.05;;;1.90;;
26488;SDS011;14169;43.684;10.484;2023-02-28T12:28:25;2.50;;;2.25;;
26488;SDS011;14169;43.684;10.484;2023-02-28T12:31:02;1.80;;;1.70;;
26488;SDS011;14169;43.684;10.484;2023-02-28T12:33:35;2.40;;;1.92;;
26488;SDS011;14169;43.684;10.484;2023-02-28T12:36:08;2.22;;;1.83;;
26488;SDS011;14169;43.684;10.484;2023-02-28T12:38:44;1.65;;;1.40;;
26488;SDS011;14169;43.684;10.484;2023-02-28T12:43:55;2.25;;;1.95;;
26488;SDS011;14169;43.684;10.484;2023-02-28T12:46:30;2.30;;;2.10;;
26488;SDS011;14169;43.684;10.484;2023-02-28T12:49:02;3.28;;;2.95;;
26488;SDS011;14169;43.684;10.484;2023-02-28T12:51:33;2.58;;;2.38;;
26488;SDS011;14169;43.684;10.484;2023-02-28T12:59:22;2.35;;;2.15;;
26488;SDS011;14169;43.684;10.484;2023-02-28T13:10:39;2.67;;;2.47;;
26488;SDS011;14169;43.684;10.484;2023-02-28T13:13:11;2.80;;;2.60;;
26488;SDS011;14169;43.684;10.484;2023-02-28T13:18:28;2.47;;;2.28;;
26488;SDS011;14169;43.684;10.484;2023-02-28T13:20:57;3.63;;;3.33;;
26488;SDS011;14169;43.684;10.484;2023-02-28T13:26:12;2.67;;;2.45;;
26488;SDS011;14169;43.684;10.484;2023-02-28T13:31:16;2.42;;;2.20;;
26488;SDS011;14169;43.684;10.484;2023-02-28T13:38:46;2.50;;;2.08;;
26488;SDS011;14169;43.684;10.484;2023-02-28T13:41:36;2.50;;;2.30;;
26488;SDS011;14169;43.684;10.484;2023-02-28T13:54:56;2.95;;;2.65;;
26488;SDS011;14169;43.684;10.484;2023-02-28T14:05:17;2.88;;;2.63;;
26488;SDS011;14169;43.684;10.484;2023-02-28T14:07:47;2.55;;;2.35;;
26488;SDS011;14169;43.684;10.484;2023-02-28T14:10:23;3.30;;;3.00;;
26488;SDS011;14169;43.684;10.484;2023-02-28T14:15:28;4.18;;;3.50;;
26488;SDS011;14169;43.684;10.484;2023-02-28T14:18:02;3.05;;;2.75;;
26488;SDS011;14169;43.684;10.484;2023-02-28T14:20:36;2.72;;;2.53;;
26488;SDS011;14169;43.684;10.484;2023-02-28T14:28:03;4.03;;;3.50;;
26488;SDS011;14169;43.684;10.484;2023-02-28T14:31:00;3.45;;;3.15;;
26488;SDS011;14169;43.684;10.484;2023-02-28T14:33:41;4.22;;;3.83;;
26488;SDS011;14169;43.684;10.484;2023-02-28T14:38:57;4.28;;;3.85;;
26488;SDS011;14169;43.684;10.484;2023-02-28T14:41:31;3.80;;;3.50;;
26488;SDS011;14169;43.684;10.484;2023-02-28T14:44:17;6.70;;;4.32;;
26488;SDS011;14169;43.684;10.484;2023-02-28T14:46:47;4.82;;;3.65;;
26488;SDS011;14169;43.684;10.484;2023-02-28T14:52:01;3.40;;;3.10;;
26488;SDS011;14169;43.684;10.484;2023-02-28T14:54:45;3.80;;;3.17;;
26488;SDS011;14169;43.684;10.484;2023-02-28T14:57:23;3.33;;;3.03;;
26488;SDS011;14169;43.684;10.484;2023-02-28T14:59:56;3.92;;;3.50;;
26488;SDS011;14169;43.684;10.484;2023-02-28T15:02:24;3.85;;;3.45;;
26488;SDS011;14169;43.684;10.484;2023-02-28T15:04:55;4.18;;;3.78;;
26488;SDS011;14169;43.684;10.484;2023-02-28T15:07:22;5.53;;;3.65;;
26488;SDS011;14169;43.684;10.484;2023-02-28T15:10:10;13.00;;;3.53;;
26488;SDS011;14169;43.684;10.484;2023-02-28T15:12:51;3.63;;;3.33;;
26488;SDS011;14169;43.684;10.484;2023-02-28T15:15:17;3.83;;;3.30;;
26488;SDS011;14169;43.684;10.484;2023-02-28T15:17:46;3.13;;;2.80;;
26488;SDS011;14169;43.684;10.484;2023-02-28T15:20:18;4.10;;;2.95;;
26488;SDS011;14169;43.684;10.484;2023-02-28T15:22:45;4.47;;;3.03;;
26488;SDS011;14169;43.684;10.484;2023-02-28T15:25:13;3.72;;;3.33;;
26488;SDS011;14169;43.684;10.484;2023-02-28T15:27:46;4.65;;;3.25;;
26488;SDS011;14169;43.684;10.484;2023-02-28T15:30:25;3.75;;;2.90;;
26488;SDS011;14169;43.684;10.484;2023-02-28T15:33:03;3.83;;;3.42;;
26488;SDS011;14169;43.684;10.484;2023-02-28T15:35:36;3.08;;;2.75;;
26488;SDS011;14169;43.684;10.484;2023-02-28T15:40:29;3.10;;;2.80;;
26488;SDS011;14169;43.684;10.484;2023-02-28T15:43:04;3.95;;;2.90;;
26488;SDS011;14169;43.684;10.484;2023-02-28T15:48:25;3.17;;;2.88;;
26488;SDS011;14169;43.684;10.484;2023-02-28T15:51:07;3.60;;;3.30;;
26488;SDS011;14169;43.684;10.484;2023-02-28T15:53:39;3.67;;;3.15;;
26488;SDS011;14169;43.684;10.484;2023-02-28T15:56:19;3.25;;;2.97;;
26488;SDS011;14169;43.684;10.484;2023-02-28T15:58:56;3.22;;;2.92;;
26488;SDS011;14169;43.684;10.484;2023-02-28T16:01:24;3.38;;;3.05;;
26488;SDS011;14169;43.684;10.484;2023-02-28T16:03:55;3.70;;;3.30;;
26488;SDS011;14169;43.684;10.484;2023-02-28T16:08:56;3.90;;;3.50;;
26488;SDS011;14169;43.684;10.484;2023-02-28T16:11:22;3.60;;;3.30;;
26488;SDS011;14169;43.684;10.484;2023-02-28T16:13:47;3.78;;;3.03;;
26488;SDS011;14169;43.684;10.484;2023-02-28T16:16:20;3.40;;;3.10;;
26488;SDS011;14169;43.684;10.484;2023-02-28T16:18:49;3.15;;;2.85;;
26488;SDS011;14169;43.684;10.484;2023-02-28T16:21:15;3.97;;;3.58;;
26488;SDS011;14169;43.684;10.484;2023-02-28T16:23:40;3.83;;;3.30;;
26488;SDS011;14169;43.684;10.484;2023-02-28T16:26:06;4.30;;;3.90;;
26488;SDS011;14169;43.684;10.484;2023-02-28T16:28:34;3.40;;;3.10;;
26488;SDS011;14169;43.684;10.484;2023-02-28T16:31:02;3.88;;;3.45;;
26488;SDS011;14169;43.684;10.484;2023-02-28T16:33:31;3.75;;;2.95;;
26488;SDS011;14169;43.684;10.484;2023-02-28T16:35:56;9.07;;;2.63;;
26488;SDS011;14169;43.684;10.484;2023-02-28T16:38:22;3.70;;;3.30;;
26488;SDS011;14169;43.684;10.484;2023-02-28T16:40:50;3.45;;;2.80;;
26488;SDS011;14169;43.684;10.484;2023-02-28T16:43:19;3.35;;;3.05;;
26488;SDS011;14169;43.684;10.484;2023-02-28T16:45:49;3.35;;;2.95;;
26488;SDS011;14169;43.684;10.484;2023-02-28T16:48:21;3.70;;;3.40;;
26488;SDS011;14169;43.684;10.484;2023-02-28T16:50:46;3.00;;;2.70;;
26488;SDS011;14169;43.684;10.484;2023-02-28T16:53:12;4.03;;;2.83;;
26488;SDS011;14169;43.684;10.484;2023-02-28T16:55:38;4.35;;;3.95;;
26488;SDS011;14169;43.684;10.484;2023-02-28T16:58:04;4.93;;;4.53;;
26488;SDS011;14169;43.684;10.484;2023-02-28T17:00:31;4.70;;;3.75;;
26488;SDS011;14169;43.684;10.484;2023-02-28T17:02:57;4.35;;;2.90;;
26488;SDS011;14169;43.684;10.484;2023-02-28T17:05:24;4.13;;;2.92;;
26488;SDS011;14169;43.684;10.484;2023-02-28T17:07:52;4.18;;;3.78;;
26488;SDS011;14169;43.684;10.484;2023-02-28T17:10:18;3.03;;;2.72;;
26488;SDS011;14169;43.684;10.484;2023-02-28T17:12:46;3.05;;;2.75;;
26488;SDS011;14169;43.684;10.484;2023-02-28T17:15:13;4.53;;;3.08;;
26488;SDS011;14169;43.684;10.484;2023-02-28T17:17:39;3.22;;;2.53;;
26488;SDS011;14169;43.684;10.484;2023-02-28T17:20:06;2.95;;;2.55;;
26488;SDS011;14169;43.684;10.484;2023-02-28T17:22:32;3.35;;;2.25;;
26488;SDS011;14169;43.684;10.484;2023-02-28T17:24:58;4.20;;;2.92;;
26488;SDS011;14169;43.684;10.484;2023-02-28T17:27:24;3.65;;;2.97;;